LFRGLFOH

Guest
Details From LFRG - Deauville Saint Gatien
To LFOH - Le Havre-Octeville
Flight Number -
Tags generated
Created
Modified
Stats Distance 23 nm / 43 km
Max Altitude 2,500 ft / 762 m
Waypoints 3
Social Downloads 1
Likes 0
Share VATSIM

Download

Looking for another format? Having issues loading an existing format? Contact us
Advertisement - Login to hide

Notes

Basic altitude profile: - Ascent Rate: 2500ft/min - Ascent Speed: 250kts - Cruise Altitude: 35000ft - Cruise Speed: 420kts - Descent Rate: 1500ft/min - Descent Speed: 250kts

Route

LFRG DVL LFOH

ID Type Via Altitude Latitude Longitude Leg Dist Tot Dist Heading (true) Name
O LFRG APT - 0 ft / 0 m 49.36530˚ 0.15432˚ - 0 nm - Deauville Saint Gatien
DVL VOR - 2,500 ft / 762 m 49.31075˚ 0.31272˚ 7 nm 7 nm 118° / 118° DEAUVILLE SAINT GATIEN VOR
O LFOH APT - 0 ft / 0 m 49.53408˚ 0.08846˚ 16 nm 23 nm 327° / 327° Le Havre-Octeville

Altitude Profile

Advertisement - Login to hide

LFRG

Details ICAO LFRG (DOL)
Name Deauville Saint Gatien
Region France
Timezone Europe/Paris (UTC+1.0)
Stats Elevation 479 ft / 146 m (AMSL)
Location 49.365296° 0.154324°
Runways 1
Magnetic Variation 0.143° W

METAR

LFRG 112300Z AUTO 34007KT 310V040 9999 SCT028 BKN033 BKN045 04/M00 Q0999

Decode

TAF

Not found

Departure Runways

ID Width Length Bearing (true) Bearing (mag) Surface Threshold Offset Overrun Length
12 148 ft / 45 m 8,344 ft / 2,543 m 117.22° 117.36° Asphalt 1,476 ft / 450 m 0 ft / 0 m
30 148 ft / 45 m 8,344 ft / 2,543 m 297.25° 297.39° Asphalt 1,378 ft / 420 m 0 ft / 0 m

LFOH

Details ICAO LFOH (LEH)
Name Le Havre-Octeville
Region France
Timezone Europe/Paris (UTC+1.0)
Stats Elevation 311 ft / 95 m (AMSL)
Location 49.534079° 0.088457°
Runways 1
Magnetic Variation 0.180° W

METAR

LFOH 112300Z AUTO 33016KT 9999 BKN028 BKN038 BKN045 05/00 Q0999

Decode

TAF

TAF TAF LFOH 111858Z 1118/1212 CNL

Decode

Destination Runways

ID Width Length Bearing (true) Bearing (mag) Surface Threshold Offset Overrun Length
04 131 ft / 40 m 7,553 ft / 2,302 m 43.07° 43.25° Asphalt 0 ft / 0 m 0 ft / 0 m
22 131 ft / 40 m 7,553 ft / 2,302 m 223.08° 223.26° Asphalt 0 ft / 0 m 0 ft / 0 m

Approach Navaids

Runway Type Ident Frequency Range Bearing (true) Bearing (mag) Slope Elevation
22 Localiser OT 109.50 MHz 18 nm / 33 km 223.06° 223.24° - 322 ft / 98 m (AMSL)
22 Glidescope OT 109.50 MHz 10 nm / 19 km 223.07° 223.25° 3.00° 313 ft / 95 m (AMSL)
22 DME OT 109.50 MHz 18 nm / 33 km - - - 354 ft / 108 m (AMSL)